Archer, IA

4:07 AM CDT on May 22, 2019 (GMT -0500)
Siggyhome | | Change Station

Elev 1450 ft 42.99 °N, 95.88 °W | Updated 9 seconds ago

Overcast
Overcast
50.5 °F
Feels Like 50.5 °F
N
4.9
Wind Variable Wind from SW
Gusts 10.5 mph

Today
High -- | Low -- °F
--% Chance of Precip.
Yesterday
High -- | Low -- °F
Precip. -- in
Pressure 29.36 in
Visibility 7.0 miles
Clouds Scattered Clouds 3200 ft
Mostly Cloudy 6000 ft
Overcast 7500 ft
Dew Point 50 °F
Humidity 99%
Rainfall 0.07 in
Snow Depth Not available.
5:53 AM 8:46 PM
Waning Gibbous, 87% visible
METAR KCKP 220855Z AUTO 18003KT 7SM -RA SCT032 BKN060 OVC075 11/11 A2936 RMK AO2 P0001 60017 T01100110
Pressure 29.36 in
Visibility 7.0 miles
Clouds Scattered Clouds 3200 ft
Mostly Cloudy 6000 ft
Overcast 7500 ft
Dew Point 50 °F
Humidity 99%
Rainfall 0.07 in
Snow Depth Not available.
5:53 AM 8:46 PM
Waning Gibbous, 87% visible
METAR KCKP 220855Z AUTO 18003KT 7SM -RA SCT032 BKN060 OVC075 11/11 A2936 RMK AO2 P0001 60017 T01100110

Get Severe Weather Alerts

Thanks for signing up!

Be on the lookout for a verification email in your inbox.

You'll start receiving the daily forecast at 6 AM.

×

10-Day Weather Forecast

Almanac

Astronomy

May. 22, 2019 Rise Set
Actual Time
Civil Twilight
Nautical Twilight
Astronomical Twilight
Moon
Length of Visible Light
Length of Day
Tomorrow will be .
, % of the Moon is Illuminated

Today's Extremes

State Highs State Lows

Community

WunderPhotos

Category 6

Welcome to Category 6. This is the collective home for Weather Underground's featured writeups by Dr. Jeff Masters (right), Bob Henson (left), Chris Burt, and other regular contributors.

Nearby

Air Quality

  Air Quality AQ Index Pollutant
Not available.

Snow Depth

Station Depth Elevation

Earthquake Activity

City Distance Mag. Time & Date
Minimum magnitude displayed is 2.5.

Coastal Water Temperatures

Place Temperature

Stations

Nearby Weather Stations

Station Location Temp. Windchill Dew Point Humidity Wind Precip. Elev Updated Type
                   

Watches & Warnings

There are currently no watches in effect.